sensor_id;sensor_type;location;lat;lon;timestamp;P1;durP1;ratioP1;P2;durP2;ratioP2
62435;SDS011;48480;50.252;18.848;2023-05-10T00:00:21;6.20;;;4.10;;
62435;SDS011;48480;50.252;18.848;2023-05-10T00:03:06;6.60;;;4.30;;
62435;SDS011;48480;50.252;18.848;2023-05-10T00:05:49;6.10;;;4.20;;
62435;SDS011;48480;50.252;18.848;2023-05-10T00:08:34;8.00;;;4.60;;
62435;SDS011;48480;50.252;18.848;2023-05-10T00:11:17;8.00;;;4.60;;
62435;SDS011;48480;50.252;18.848;2023-05-10T00:14:01;9.10;;;5.00;;
62435;SDS011;48480;50.252;18.848;2023-05-10T00:16:45;10.10;;;4.80;;
62435;SDS011;48480;50.252;18.848;2023-05-10T00:19:29;8.00;;;4.60;;
62435;SDS011;48480;50.252;18.848;2023-05-10T00:22:13;5.80;;;4.40;;
62435;SDS011;48480;50.252;18.848;2023-05-10T00:24:57;6.10;;;4.40;;
62435;SDS011;48480;50.252;18.848;2023-05-10T00:27:41;7.00;;;4.70;;
62435;SDS011;48480;50.252;18.848;2023-05-10T00:30:25;7.80;;;4.20;;
62435;SDS011;48480;50.252;18.848;2023-05-10T00:33:09;8.30;;;4.70;;
62435;SDS011;48480;50.252;18.848;2023-05-10T00:35:55;8.00;;;4.60;;
62435;SDS011;48480;50.252;18.848;2023-05-10T00:38:39;6.60;;;4.30;;
62435;SDS011;48480;50.252;18.848;2023-05-10T00:41:24;8.00;;;4.60;;
62435;SDS011;48480;50.252;18.848;2023-05-10T00:44:08;7.00;;;4.80;;
62435;SDS011;48480;50.252;18.848;2023-05-10T00:46:52;7.10;;;4.70;;
62435;SDS011;48480;50.252;18.848;2023-05-10T00:49:35;7.00;;;4.30;;
62435;SDS011;48480;50.252;18.848;2023-05-10T00:52:20;9.10;;;5.00;;
62435;SDS011;48480;50.252;18.848;2023-05-10T00:55:05;5.70;;;4.30;;
62435;SDS011;48480;50.252;18.848;2023-05-10T00:57:50;8.50;;;4.80;;
62435;SDS011;48480;50.252;18.848;2023-05-10T01:00:34;7.50;;;4.30;;
62435;SDS011;48480;50.252;18.848;2023-05-10T01:03:21;7.70;;;4.50;;
62435;SDS011;48480;50.252;18.848;2023-05-10T01:06:05;6.90;;;4.40;;
62435;SDS011;48480;50.252;18.848;2023-05-10T01:08:49;10.90;;;4.70;;
62435;SDS011;48480;50.252;18.848;2023-05-10T01:11:34;7.40;;;4.40;;
62435;SDS011;48480;50.252;18.848;2023-05-10T01:14:20;7.40;;;4.80;;
62435;SDS011;48480;50.252;18.848;2023-05-10T01:17:05;7.80;;;4.90;;
62435;SDS011;48480;50.252;18.848;2023-05-10T01:19:50;8.80;;;5.50;;
62435;SDS011;48480;50.252;18.848;2023-05-10T01:32:07;6.30;;;4.10;;
62435;SDS011;48480;50.252;18.848;2023-05-10T01:34:59;6.40;;;4.00;;
62435;SDS011;48480;50.252;18.848;2023-05-10T01:37:50;6.80;;;4.70;;
62435;SDS011;48480;50.252;18.848;2023-05-10T01:41:00;6.90;;;4.40;;
62435;SDS011;48480;50.252;18.848;2023-05-10T01:47:05;6.30;;;4.10;;
62435;SDS011;48480;50.252;18.848;2023-05-10T01:49:55;6.40;;;4.40;;
62435;SDS011;48480;50.252;18.848;2023-05-10T01:52:47;6.60;;;4.00;;
62435;SDS011;48480;50.252;18.848;2023-05-10T01:55:43;7.10;;;4.40;;
62435;SDS011;48480;50.252;18.848;2023-05-10T01:58:31;7.40;;;4.50;;
62435;SDS011;48480;50.252;18.848;2023-05-10T02:01:17;8.50;;;5.00;;
62435;SDS011;48480;50.252;18.848;2023-05-10T02:04:04;6.40;;;4.40;;
62435;SDS011;48480;50.252;18.848;2023-05-10T02:06:52;8.40;;;4.90;;
62435;SDS011;48480;50.252;18.848;2023-05-10T02:09:38;7.70;;;4.10;;
62435;SDS011;48480;50.252;18.848;2023-05-10T02:12:24;7.30;;;4.40;;
62435;SDS011;48480;50.252;18.848;2023-05-10T02:15:10;6.30;;;4.60;;
62435;SDS011;48480;50.252;18.848;2023-05-10T02:17:56;7.40;;;4.70;;
62435;SDS011;48480;50.252;18.848;2023-05-10T02:20:42;6.70;;;4.90;;
62435;SDS011;48480;50.252;18.848;2023-05-10T02:23:29;7.20;;;4.60;;
62435;SDS011;48480;50.252;18.848;2023-05-10T02:26:15;7.50;;;4.60;;
62435;SDS011;48480;50.252;18.848;2023-05-10T02:29:01;7.20;;;4.40;;
62435;SDS011;48480;50.252;18.848;2023-05-10T02:31:46;6.70;;;4.00;;
62435;SDS011;48480;50.252;18.848;2023-05-10T02:34:31;7.80;;;4.70;;
62435;SDS011;48480;50.252;18.848;2023-05-10T02:37:16;9.60;;;4.50;;
62435;SDS011;48480;50.252;18.848;2023-05-10T02:40:02;7.50;;;4.20;;
62435;SDS011;48480;50.252;18.848;2023-05-10T02:42:50;5.80;;;3.90;;
62435;SDS011;48480;50.252;18.848;2023-05-10T02:45:38;7.90;;;4.40;;
62435;SDS011;48480;50.252;18.848;2023-05-10T02:48:24;8.30;;;4.70;;
62435;SDS011;48480;50.252;18.848;2023-05-10T02:51:08;6.90;;;4.50;;
62435;SDS011;48480;50.252;18.848;2023-05-10T02:53:56;7.20;;;4.60;;
62435;SDS011;48480;50.252;18.848;2023-05-10T02:56:42;8.60;;;4.90;;
62435;SDS011;48480;50.252;18.848;2023-05-10T02:59:34;5.40;;;4.40;;
62435;SDS011;48480;50.252;18.848;2023-05-10T03:02:19;8.30;;;4.70;;
62435;SDS011;48480;50.252;18.848;2023-05-10T03:05:04;7.30;;;4.30;;
62435;SDS011;48480;50.252;18.848;2023-05-10T03:07:48;6.90;;;4.60;;
62435;SDS011;48480;50.252;18.848;2023-05-10T03:10:33;7.30;;;4.70;;
62435;SDS011;48480;50.252;18.848;2023-05-10T03:16:12;7.50;;;4.60;;
62435;SDS011;48480;50.252;18.848;2023-05-10T03:19:16;7.50;;;5.30;;
62435;SDS011;48480;50.252;18.848;2023-05-10T03:22:10;5.90;;;4.50;;
62435;SDS011;48480;50.252;18.848;2023-05-10T03:24:55;6.10;;;4.30;;
62435;SDS011;48480;50.252;18.848;2023-05-10T03:27:43;8.80;;;5.20;;
62435;SDS011;48480;50.252;18.848;2023-05-10T03:30:28;6.80;;;4.80;;
62435;SDS011;48480;50.252;18.848;2023-05-10T03:33:13;7.90;;;4.60;;
62435;SDS011;48480;50.252;18.848;2023-05-10T03:35:57;6.50;;;4.80;;
62435;SDS011;48480;50.252;18.848;2023-05-10T03:38:41;7.60;;;5.10;;
62435;SDS011;48480;50.252;18.848;2023-05-10T03:41:25;7.60;;;5.10;;
62435;SDS011;48480;50.252;18.848;2023-05-10T03:44:09;7.10;;;4.80;;
62435;SDS011;48480;50.252;18.848;2023-05-10T03:46:54;9.50;;;5.40;;
62435;SDS011;48480;50.252;18.848;2023-05-10T03:49:39;7.70;;;5.70;;
62435;SDS011;48480;50.252;18.848;2023-05-10T03:52:22;7.00;;;5.10;;
62435;SDS011;48480;50.252;18.848;2023-05-10T03:55:07;6.40;;;4.70;;
62435;SDS011;48480;50.252;18.848;2023-05-10T03:57:51;8.70;;;5.10;;
62435;SDS011;48480;50.252;18.848;2023-05-10T04:00:37;8.90;;;4.40;;
62435;SDS011;48480;50.252;18.848;2023-05-10T04:03:27;7.60;;;4.70;;
62435;SDS011;48480;50.252;18.848;2023-05-10T04:06:11;8.00;;;4.50;;
62435;SDS011;48480;50.252;18.848;2023-05-10T04:08:55;7.70;;;4.90;;
62435;SDS011;48480;50.252;18.848;2023-05-10T04:11:39;9.20;;;5.10;;
62435;SDS011;48480;50.252;18.848;2023-05-10T04:14:23;7.80;;;5.10;;
62435;SDS011;48480;50.252;18.848;2023-05-10T04:17:07;7.10;;;5.00;;
62435;SDS011;48480;50.252;18.848;2023-05-10T04:19:51;8.50;;;4.80;;
62435;SDS011;48480;50.252;18.848;2023-05-10T04:22:38;9.50;;;4.80;;
62435;SDS011;48480;50.252;18.848;2023-05-10T04:25:22;6.60;;;4.20;;
62435;SDS011;48480;50.252;18.848;2023-05-10T04:28:06;6.50;;;4.40;;
62435;SDS011;48480;50.252;18.848;2023-05-10T04:30:50;7.60;;;5.00;;
62435;SDS011;48480;50.252;18.848;2023-05-10T04:33:34;8.60;;;5.10;;
62435;SDS011;48480;50.252;18.848;2023-05-10T04:36:19;8.00;;;5.40;;
62435;SDS011;48480;50.252;18.848;2023-05-10T04:39:04;7.40;;;5.30;;
62435;SDS011;48480;50.252;18.848;2023-05-10T04:41:48;7.40;;;4.40;;
62435;SDS011;48480;50.252;18.848;2023-05-10T04:44:32;8.80;;;5.00;;
62435;SDS011;48480;50.252;18.848;2023-05-10T04:47:17;5.40;;;3.90;;
62435;SDS011;48480;50.252;18.848;2023-05-10T04:50:01;10.90;;;5.70;;
62435;SDS011;48480;50.252;18.848;2023-05-10T04:52:45;7.40;;;5.00;;
62435;SDS011;48480;50.252;18.848;2023-05-10T04:55:29;9.80;;;5.20;;
62435;SDS011;48480;50.252;18.848;2023-05-10T04:58:13;7.80;;;4.70;;
62435;SDS011;48480;50.252;18.848;2023-05-10T05:00:57;8.50;;;4.90;;
62435;SDS011;48480;50.252;18.848;2023-05-10T05:03:41;7.70;;;5.00;;
62435;SDS011;48480;50.252;18.848;2023-05-10T05:06:26;8.30;;;4.60;;
62435;SDS011;48480;50.252;18.848;2023-05-10T05:09:11;7.80;;;5.60;;
62435;SDS011;48480;50.252;18.848;2023-05-10T05:11:55;7.70;;;4.90;;
62435;SDS011;48480;50.252;18.848;2023-05-10T05:14:39;8.90;;;5.00;;
62435;SDS011;48480;50.252;18.848;2023-05-10T05:17:24;9.00;;;5.60;;
62435;SDS011;48480;50.252;18.848;2023-05-10T05:20:09;9.00;;;4.70;;
62435;SDS011;48480;50.252;18.848;2023-05-10T05:22:53;6.10;;;4.60;;
62435;SDS011;48480;50.252;18.848;2023-05-10T05:25:37;8.20;;;4.30;;
62435;SDS011;48480;50.252;18.848;2023-05-10T05:28:21;6.10;;;4.50;;
62435;SDS011;48480;50.252;18.848;2023-05-10T05:31:06;8.60;;;4.70;;
62435;SDS011;48480;50.252;18.848;2023-05-10T05:33:54;7.20;;;4.60;;
62435;SDS011;48480;50.252;18.848;2023-05-10T05:36:39;8.20;;;4.70;;
62435;SDS011;48480;50.252;18.848;2023-05-10T05:39:23;9.20;;;4.00;;
62435;SDS011;48480;50.252;18.848;2023-05-10T05:42:06;6.60;;;3.80;;
62435;SDS011;48480;50.252;18.848;2023-05-10T05:44:50;10.30;;;4.30;;
62435;SDS011;48480;50.252;18.848;2023-05-10T05:47:34;7.90;;;3.60;;
62435;SDS011;48480;50.252;18.848;2023-05-10T05:50:18;7.60;;;3.70;;
62435;SDS011;48480;50.252;18.848;2023-05-10T05:53:02;12.00;;;3.90;;
62435;SDS011;48480;50.252;18.848;2023-05-10T05:55:53;5.90;;;3.70;;
62435;SDS011;48480;50.252;18.848;2023-05-10T05:58:38;4.90;;;3.40;;
62435;SDS011;48480;50.252;18.848;2023-05-10T06:01:22;7.80;;;4.10;;
62435;SDS011;48480;50.252;18.848;2023-05-10T06:04:07;6.90;;;3.90;;
62435;SDS011;48480;50.252;18.848;2023-05-10T06:06:51;8.00;;;4.10;;
62435;SDS011;48480;50.252;18.848;2023-05-10T06:09:35;4.60;;;3.50;;
62435;SDS011;48480;50.252;18.848;2023-05-10T06:12:19;7.20;;;3.60;;
62435;SDS011;48480;50.252;18.848;2023-05-10T06:15:03;5.30;;;3.30;;
62435;SDS011;48480;50.252;18.848;2023-05-10T06:17:48;5.90;;;3.20;;
62435;SDS011;48480;50.252;18.848;2023-05-10T06:20:33;6.90;;;3.40;;
62435;SDS011;48480;50.252;18.848;2023-05-10T06:23:17;4.50;;;2.90;;
62435;SDS011;48480;50.252;18.848;2023-05-10T06:26:01;4.50;;;3.10;;
62435;SDS011;48480;50.252;18.848;2023-05-10T06:28:45;4.00;;;3.10;;
62435;SDS011;48480;50.252;18.848;2023-05-10T06:31:29;6.00;;;3.00;;
62435;SDS011;48480;50.252;18.848;2023-05-10T06:34:13;6.00;;;3.60;;
62435;SDS011;48480;50.252;18.848;2023-05-10T06:36:57;5.20;;;3.10;;
62435;SDS011;48480;50.252;18.848;2023-05-10T06:39:41;4.30;;;2.80;;
62435;SDS011;48480;50.252;18.848;2023-05-10T06:42:25;4.90;;;3.30;;
62435;SDS011;48480;50.252;18.848;2023-05-10T06:45:09;3.90;;;3.00;;
62435;SDS011;48480;50.252;18.848;2023-05-10T06:47:53;5.20;;;2.90;;
62435;SDS011;48480;50.252;18.848;2023-05-10T06:50:38;3.90;;;2.50;;
62435;SDS011;48480;50.252;18.848;2023-05-10T06:53:22;5.30;;;2.80;;
62435;SDS011;48480;50.252;18.848;2023-05-10T06:56:06;4.80;;;2.90;;
62435;SDS011;48480;50.252;18.848;2023-05-10T06:58:50;6.80;;;2.70;;
62435;SDS011;48480;50.252;18.848;2023-05-10T07:01:34;6.50;;;2.50;;
62435;SDS011;48480;50.252;18.848;2023-05-10T07:04:19;5.10;;;2.80;;
62435;SDS011;48480;50.252;18.848;2023-05-10T07:07:03;5.40;;;2.90;;
62435;SDS011;48480;50.252;18.848;2023-05-10T07:09:47;3.40;;;2.30;;
62435;SDS011;48480;50.252;18.848;2023-05-10T07:12:31;3.30;;;2.50;;
62435;SDS011;48480;50.252;18.848;2023-05-10T07:15:15;7.90;;;2.40;;
62435;SDS011;48480;50.252;18.848;2023-05-10T07:17:59;3.80;;;2.20;;
62435;SDS011;48480;50.252;18.848;2023-05-10T07:20:43;3.50;;;2.30;;
62435;SDS011;48480;50.252;18.848;2023-05-10T07:23:27;3.40;;;2.10;;
62435;SDS011;48480;50.252;18.848;2023-05-10T07:26:11;3.50;;;2.10;;
62435;SDS011;48480;50.252;18.848;2023-05-10T07:28:55;2.70;;;2.10;;
62435;SDS011;48480;50.252;18.848;2023-05-10T07:31:39;4.00;;;2.40;;
62435;SDS011;48480;50.252;18.848;2023-05-10T07:34:25;3.50;;;2.00;;
62435;SDS011;48480;50.252;18.848;2023-05-10T07:37:09;4.20;;;2.00;;
62435;SDS011;48480;50.252;18.848;2023-05-10T07:39:53;3.00;;;2.10;;
62435;SDS011;48480;50.252;18.848;2023-05-10T07:42:37;4.90;;;2.00;;
62435;SDS011;48480;50.252;18.848;2023-05-10T07:45:21;2.80;;;2.00;;
62435;SDS011;48480;50.252;18.848;2023-05-10T07:48:06;2.50;;;1.90;;
62435;SDS011;48480;50.252;18.848;2023-05-10T07:50:50;3.10;;;2.00;;
62435;SDS011;48480;50.252;18.848;2023-05-10T07:53:34;4.30;;;2.00;;
62435;SDS011;48480;50.252;18.848;2023-05-10T07:56:23;4.10;;;2.00;;
62435;SDS011;48480;50.252;18.848;2023-05-10T07:59:10;3.90;;;1.90;;
62435;SDS011;48480;50.252;18.848;2023-05-10T08:01:53;2.40;;;1.70;;
62435;SDS011;48480;50.252;18.848;2023-05-10T08:04:38;4.60;;;2.10;;
62435;SDS011;48480;50.252;18.848;2023-05-10T08:07:22;2.70;;;1.90;;
62435;SDS011;48480;50.252;18.848;2023-05-10T08:10:08;3.50;;;1.60;;
62435;SDS011;48480;50.252;18.848;2023-05-10T08:12:54;2.60;;;1.80;;
62435;SDS011;48480;50.252;18.848;2023-05-10T08:15:38;3.70;;;1.90;;
62435;SDS011;48480;50.252;18.848;2023-05-10T08:18:22;2.50;;;1.70;;
62435;SDS011;48480;50.252;18.848;2023-05-10T08:21:06;6.80;;;2.00;;
62435;SDS011;48480;50.252;18.848;2023-05-10T08:23:50;5.90;;;1.90;;
62435;SDS011;48480;50.252;18.848;2023-05-10T08:26:34;3.00;;;1.80;;
62435;SDS011;48480;50.252;18.848;2023-05-10T08:29:18;3.80;;;2.00;;
62435;SDS011;48480;50.252;18.848;2023-05-10T08:32:03;8.10;;;2.50;;
62435;SDS011;48480;50.252;18.848;2023-05-10T08:34:46;3.40;;;1.80;;
62435;SDS011;48480;50.252;18.848;2023-05-10T08:37:30;9.20;;;2.10;;
62435;SDS011;48480;50.252;18.848;2023-05-10T08:40:15;5.90;;;2.10;;
62435;SDS011;48480;50.252;18.848;2023-05-10T08:43:07;4.50;;;2.10;;
62435;SDS011;48480;50.252;18.848;2023-05-10T08:45:53;4.50;;;2.10;;
62435;SDS011;48480;50.252;18.848;2023-05-10T08:48:38;4.20;;;2.00;;
62435;SDS011;48480;50.252;18.848;2023-05-10T08:51:23;5.50;;;2.90;;
62435;SDS011;48480;50.252;18.848;2023-05-10T08:54:10;2.40;;;1.80;;
62435;SDS011;48480;50.252;18.848;2023-05-10T08:56:54;4.50;;;1.90;;
62435;SDS011;48480;50.252;18.848;2023-05-10T08:59:38;3.90;;;1.70;;
62435;SDS011;48480;50.252;18.848;2023-05-10T09:02:23;2.10;;;1.60;;
62435;SDS011;48480;50.252;18.848;2023-05-10T09:05:08;3.00;;;1.60;;
62435;SDS011;48480;50.252;18.848;2023-05-10T09:07:53;3.90;;;1.80;;
62435;SDS011;48480;50.252;18.848;2023-05-10T09:10:38;3.80;;;1.80;;
62435;SDS011;48480;50.252;18.848;2023-05-10T09:13:23;3.30;;;1.50;;
62435;SDS011;48480;50.252;18.848;2023-05-10T09:16:08;4.70;;;1.70;;
62435;SDS011;48480;50.252;18.848;2023-05-10T09:18:53;4.60;;;1.70;;
62435;SDS011;48480;50.252;18.848;2023-05-10T09:21:36;2.50;;;1.60;;
62435;SDS011;48480;50.252;18.848;2023-05-10T09:24:26;2.50;;;1.50;;
62435;SDS011;48480;50.252;18.848;2023-05-10T09:27:10;2.20;;;1.50;;
62435;SDS011;48480;50.252;18.848;2023-05-10T09:29:54;4.70;;;2.10;;
62435;SDS011;48480;50.252;18.848;2023-05-10T09:32:40;2.40;;;1.80;;
62435;SDS011;48480;50.252;18.848;2023-05-10T09:35:29;3.60;;;1.60;;
62435;SDS011;48480;50.252;18.848;2023-05-10T09:38:14;4.70;;;1.90;;
62435;SDS011;48480;50.252;18.848;2023-05-10T09:40:58;4.00;;;1.90;;
62435;SDS011;48480;50.252;18.848;2023-05-10T09:43:41;4.90;;;1.70;;
62435;SDS011;48480;50.252;18.848;2023-05-10T09:46:25;2.20;;;1.80;;
62435;SDS011;48480;50.252;18.848;2023-05-10T09:49:11;3.00;;;1.50;;
62435;SDS011;48480;50.252;18.848;2023-05-10T09:52:05;3.70;;;1.80;;
62435;SDS011;48480;50.252;18.848;2023-05-10T09:54:54;9.70;;;2.40;;
62435;SDS011;48480;50.252;18.848;2023-05-10T09:57:38;6.60;;;2.10;;
62435;SDS011;48480;50.252;18.848;2023-05-10T10:00:22;3.80;;;2.40;;
62435;SDS011;48480;50.252;18.848;2023-05-10T10:03:11;4.90;;;2.10;;
62435;SDS011;48480;50.252;18.848;2023-05-10T10:05:57;4.10;;;1.80;;
62435;SDS011;48480;50.252;18.848;2023-05-10T10:08:41;4.80;;;1.80;;
62435;SDS011;48480;50.252;18.848;2023-05-10T10:11:25;5.20;;;1.90;;
62435;SDS011;48480;50.252;18.848;2023-05-10T10:14:09;3.30;;;1.90;;
62435;SDS011;48480;50.252;18.848;2023-05-10T10:16:55;2.70;;;1.80;;
62435;SDS011;48480;50.252;18.848;2023-05-10T10:19:40;4.50;;;2.00;;
62435;SDS011;48480;50.252;18.848;2023-05-10T10:22:24;5.00;;;1.80;;
62435;SDS011;48480;50.252;18.848;2023-05-10T10:25:09;3.70;;;2.00;;
62435;SDS011;48480;50.252;18.848;2023-05-10T10:27:58;4.20;;;2.10;;
62435;SDS011;48480;50.252;18.848;2023-05-10T10:30:51;4.90;;;2.00;;
62435;SDS011;48480;50.252;18.848;2023-05-10T10:36:42;2.90;;;1.70;;
62435;SDS011;48480;50.252;18.848;2023-05-10T10:39:28;3.80;;;1.80;;
62435;SDS011;48480;50.252;18.848;2023-05-10T10:42:12;3.80;;;1.90;;
62435;SDS011;48480;50.252;18.848;2023-05-10T10:45:11;2.90;;;2.20;;
62435;SDS011;48480;50.252;18.848;2023-05-10T10:51:03;4.80;;;2.00;;
62435;SDS011;48480;50.252;18.848;2023-05-10T10:53:47;3.00;;;1.80;;
62435;SDS011;48480;50.252;18.848;2023-05-10T10:56:31;3.00;;;1.90;;
62435;SDS011;48480;50.252;18.848;2023-05-10T10:59:26;3.00;;;1.90;;
62435;SDS011;48480;50.252;18.848;2023-05-10T11:05:38;4.50;;;2.00;;
62435;SDS011;48480;50.252;18.848;2023-05-10T11:08:28;2.50;;;1.80;;
62435;SDS011;48480;50.252;18.848;2023-05-10T11:11:14;3.30;;;2.20;;
62435;SDS011;48480;50.252;18.848;2023-05-10T11:14:02;2.70;;;1.80;;
62435;SDS011;48480;50.252;18.848;2023-05-10T11:16:48;4.30;;;2.10;;
62435;SDS011;48480;50.252;18.848;2023-05-10T11:19:32;3.70;;;1.90;;
62435;SDS011;48480;50.252;18.848;2023-05-10T11:22:16;3.60;;;2.60;;
62435;SDS011;48480;50.252;18.848;2023-05-10T11:25:01;4.40;;;2.20;;
62435;SDS011;48480;50.252;18.848;2023-05-10T11:27:49;3.60;;;1.90;;
62435;SDS011;48480;50.252;18.848;2023-05-10T11:30:34;3.10;;;1.90;;
62435;SDS011;48480;50.252;18.848;2023-05-10T11:33:18;2.80;;;1.90;;
62435;SDS011;48480;50.252;18.848;2023-05-10T11:36:03;2.80;;;2.30;;
62435;SDS011;48480;50.252;18.848;2023-05-10T11:38:47;4.80;;;2.00;;
62435;SDS011;48480;50.252;18.848;2023-05-10T11:41:32;3.80;;;2.10;;
62435;SDS011;48480;50.252;18.848;2023-05-10T11:44:16;4.50;;;2.50;;
62435;SDS011;48480;50.252;18.848;2023-05-10T11:47:01;3.10;;;1.50;;
62435;SDS011;48480;50.252;18.848;2023-05-10T11:49:45;3.90;;;1.90;;
62435;SDS011;48480;50.252;18.848;2023-05-10T11:52:34;4.60;;;1.90;;
62435;SDS011;48480;50.252;18.848;2023-05-10T11:55:20;3.80;;;2.60;;
62435;SDS011;48480;50.252;18.848;2023-05-10T11:58:05;2.40;;;1.90;;
62435;SDS011;48480;50.252;18.848;2023-05-10T12:00:49;2.80;;;2.00;;
62435;SDS011;48480;50.252;18.848;2023-05-10T12:03:33;5.00;;;2.10;;
62435;SDS011;48480;50.252;18.848;2023-05-10T12:06:18;3.10;;;1.80;;
62435;SDS011;48480;50.252;18.848;2023-05-10T12:09:09;3.50;;;2.10;;
62435;SDS011;48480;50.252;18.848;2023-05-10T12:11:55;3.30;;;1.90;;
62435;SDS011;48480;50.252;18.848;2023-05-10T12:14:42;4.40;;;1.90;;
62435;SDS011;48480;50.252;18.848;2023-05-10T12:17:27;4.80;;;2.30;;
62435;SDS011;48480;50.252;18.848;2023-05-10T12:23:04;5.20;;;2.00;;
62435;SDS011;48480;50.252;18.848;2023-05-10T12:25:48;3.50;;;1.70;;
62435;SDS011;48480;50.252;18.848;2023-05-10T12:28:32;4.20;;;2.00;;
62435;SDS011;48480;50.252;18.848;2023-05-10T12:31:17;3.10;;;1.60;;
62435;SDS011;48480;50.252;18.848;2023-05-10T12:34:01;4.80;;;1.80;;
62435;SDS011;48480;50.252;18.848;2023-05-10T12:36:45;2.70;;;1.90;;
62435;SDS011;48480;50.252;18.848;2023-05-10T12:39:40;3.60;;;2.10;;
62435;SDS011;48480;50.252;18.848;2023-05-10T12:42:26;5.90;;;1.60;;
62435;SDS011;48480;50.252;18.848;2023-05-10T12:45:10;3.90;;;1.90;;
62435;SDS011;48480;50.252;18.848;2023-05-10T12:47:55;2.90;;;2.10;;
62435;SDS011;48480;50.252;18.848;2023-05-10T12:50:38;2.50;;;2.00;;
62435;SDS011;48480;50.252;18.848;2023-05-10T12:53:22;3.50;;;2.10;;
62435;SDS011;48480;50.252;18.848;2023-05-10T12:56:07;2.30;;;1.80;;
62435;SDS011;48480;50.252;18.848;2023-05-10T12:58:51;3.90;;;1.90;;
62435;SDS011;48480;50.252;18.848;2023-05-10T13:01:35;5.50;;;1.80;;
62435;SDS011;48480;50.252;18.848;2023-05-10T13:04:19;2.70;;;1.80;;
62435;SDS011;48480;50.252;18.848;2023-05-10T13:07:03;7.30;;;2.00;;
62435;SDS011;48480;50.252;18.848;2023-05-10T13:09:48;5.80;;;1.90;;
62435;SDS011;48480;50.252;18.848;2023-05-10T13:12:32;3.40;;;1.80;;
62435;SDS011;48480;50.252;18.848;2023-05-10T13:15:16;2.80;;;2.00;;
62435;SDS011;48480;50.252;18.848;2023-05-10T13:18:00;4.10;;;2.10;;
62435;SDS011;48480;50.252;18.848;2023-05-10T13:20:44;6.00;;;2.50;;
62435;SDS011;48480;50.252;18.848;2023-05-10T13:23:28;3.20;;;1.80;;
62435;SDS011;48480;50.252;18.848;2023-05-10T13:26:12;5.20;;;1.80;;
62435;SDS011;48480;50.252;18.848;2023-05-10T13:28:56;3.30;;;1.90;;
62435;SDS011;48480;50.252;18.848;2023-05-10T13:31:40;2.40;;;1.80;;
62435;SDS011;48480;50.252;18.848;2023-05-10T13:34:24;3.60;;;1.60;;
62435;SDS011;48480;50.252;18.848;2023-05-10T13:37:08;3.40;;;1.70;;
62435;SDS011;48480;50.252;18.848;2023-05-10T13:39:52;2.90;;;1.60;;
62435;SDS011;48480;50.252;18.848;2023-05-10T13:42:36;3.00;;;1.80;;
62435;SDS011;48480;50.252;18.848;2023-05-10T13:45:21;3.10;;;1.80;;
62435;SDS011;48480;50.252;18.848;2023-05-10T13:48:05;2.90;;;1.80;;
62435;SDS011;48480;50.252;18.848;2023-05-10T13:50:49;2.90;;;1.80;;
62435;SDS011;48480;50.252;18.848;2023-05-10T13:53:33;2.60;;;1.80;;
62435;SDS011;48480;50.252;18.848;2023-05-10T13:56:17;4.50;;;2.00;;
62435;SDS011;48480;50.252;18.848;2023-05-10T13:59:01;3.70;;;1.80;;
62435;SDS011;48480;50.252;18.848;2023-05-10T14:01:45;4.50;;;1.70;;
62435;SDS011;48480;50.252;18.848;2023-05-10T14:04:29;7.10;;;1.80;;
62435;SDS011;48480;50.252;18.848;2023-05-10T14:07:14;2.40;;;1.80;;
62435;SDS011;48480;50.252;18.848;2023-05-10T14:09:58;2.50;;;1.90;;
62435;SDS011;48480;50.252;18.848;2023-05-10T14:12:42;2.90;;;1.70;;
62435;SDS011;48480;50.252;18.848;2023-05-10T14:15:26;3.00;;;2.20;;
62435;SDS011;48480;50.252;18.848;2023-05-10T14:18:10;3.20;;;2.00;;
62435;SDS011;48480;50.252;18.848;2023-05-10T14:20:54;3.60;;;1.70;;
62435;SDS011;48480;50.252;18.848;2023-05-10T14:23:39;3.40;;;1.80;;
62435;SDS011;48480;50.252;18.848;2023-05-10T14:26:23;6.00;;;1.70;;
62435;SDS011;48480;50.252;18.848;2023-05-10T14:29:07;2.50;;;1.80;;
62435;SDS011;48480;50.252;18.848;2023-05-10T14:31:51;7.50;;;2.00;;
62435;SDS011;48480;50.252;18.848;2023-05-10T14:34:36;4.90;;;1.80;;
62435;SDS011;48480;50.252;18.848;2023-05-10T14:37:19;2.00;;;1.70;;
62435;SDS011;48480;50.252;18.848;2023-05-10T14:40:04;4.40;;;1.90;;
62435;SDS011;48480;50.252;18.848;2023-05-10T14:42:50;2.90;;;1.80;;
62435;SDS011;48480;50.252;18.848;2023-05-10T14:45:36;4.20;;;1.70;;
62435;SDS011;48480;50.252;18.848;2023-05-10T14:48:20;3.80;;;2.00;;
62435;SDS011;48480;50.252;18.848;2023-05-10T14:51:04;2.10;;;1.60;;
62435;SDS011;48480;50.252;18.848;2023-05-10T14:53:48;2.90;;;1.90;;
62435;SDS011;48480;50.252;18.848;2023-05-10T14:56:33;3.20;;;2.30;;
62435;SDS011;48480;50.252;18.848;2023-05-10T14:59:17;4.20;;;1.80;;
62435;SDS011;48480;50.252;18.848;2023-05-10T15:02:01;3.30;;;2.00;;
62435;SDS011;48480;50.252;18.848;2023-05-10T15:04:45;4.00;;;2.20;;
62435;SDS011;48480;50.252;18.848;2023-05-10T15:07:29;4.20;;;1.90;;
62435;SDS011;48480;50.252;18.848;2023-05-10T15:10:14;4.20;;;2.20;;
62435;SDS011;48480;50.252;18.848;2023-05-10T15:12:58;2.60;;;1.90;;
62435;SDS011;48480;50.252;18.848;2023-05-10T15:15:43;4.40;;;2.30;;
62435;SDS011;48480;50.252;18.848;2023-05-10T15:18:27;4.40;;;1.90;;
62435;SDS011;48480;50.252;18.848;2023-05-10T15:21:11;2.80;;;2.00;;
62435;SDS011;48480;50.252;18.848;2023-05-10T15:23:55;4.30;;;1.80;;
62435;SDS011;48480;50.252;18.848;2023-05-10T15:26:39;7.10;;;1.90;;
62435;SDS011;48480;50.252;18.848;2023-05-10T15:29:23;3.60;;;2.50;;
62435;SDS011;48480;50.252;18.848;2023-05-10T15:32:08;4.80;;;1.80;;
62435;SDS011;48480;50.252;18.848;2023-05-10T15:34:52;4.30;;;2.20;;
62435;SDS011;48480;50.252;18.848;2023-05-10T15:37:36;3.40;;;2.00;;
62435;SDS011;48480;50.252;18.848;2023-05-10T15:40:21;2.70;;;1.90;;
62435;SDS011;48480;50.252;18.848;2023-05-10T15:43:05;2.10;;;1.70;;
62435;SDS011;48480;50.252;18.848;2023-05-10T15:45:49;3.30;;;1.90;;
62435;SDS011;48480;50.252;18.848;2023-05-10T15:48:33;2.60;;;2.00;;
62435;SDS011;48480;50.252;18.848;2023-05-10T15:51:17;3.50;;;1.90;;
62435;SDS011;48480;50.252;18.848;2023-05-10T15:54:02;2.60;;;1.70;;
62435;SDS011;48480;50.252;18.848;2023-05-10T15:56:46;3.30;;;2.00;;
62435;SDS011;48480;50.252;18.848;2023-05-10T15:59:31;2.40;;;1.90;;
62435;SDS011;48480;50.252;18.848;2023-05-10T16:02:15;2.90;;;1.90;;
62435;SDS011;48480;50.252;18.848;2023-05-10T16:05:01;5.00;;;1.90;;
62435;SDS011;48480;50.252;18.848;2023-05-10T16:07:46;2.80;;;1.90;;
62435;SDS011;48480;50.252;18.848;2023-05-10T16:10:30;5.00;;;2.10;;
62435;SDS011;48480;50.252;18.848;2023-05-10T16:13:15;3.20;;;1.70;;
62435;SDS011;48480;50.252;18.848;2023-05-10T16:16:00;4.10;;;1.70;;
62435;SDS011;48480;50.252;18.848;2023-05-10T16:18:44;2.70;;;1.60;;
62435;SDS011;48480;50.252;18.848;2023-05-10T16:21:31;3.00;;;2.30;;
62435;SDS011;48480;50.252;18.848;2023-05-10T16:24:16;4.20;;;1.90;;
62435;SDS011;48480;50.252;18.848;2023-05-10T16:27:00;5.90;;;2.00;;
62435;SDS011;48480;50.252;18.848;2023-05-10T16:29:46;2.30;;;1.70;;
62435;SDS011;48480;50.252;18.848;2023-05-10T16:32:30;3.90;;;1.80;;
62435;SDS011;48480;50.252;18.848;2023-05-10T16:35:14;4.50;;;2.00;;
62435;SDS011;48480;50.252;18.848;2023-05-10T16:37:58;4.70;;;2.20;;
62435;SDS011;48480;50.252;18.848;2023-05-10T16:40:43;4.40;;;2.00;;
62435;SDS011;48480;50.252;18.848;2023-05-10T16:43:27;4.50;;;2.00;;
62435;SDS011;48480;50.252;18.848;2023-05-10T16:46:11;2.50;;;2.10;;